Time;durP1;ratioP1;P1;durP2;ratioP2;P2;SDS_P1;SDS_P2;PMS_P1;PMS_P2;Temp;Humidity;BMP_temperature;BMP_pressure;BME280_temperature;BME280_humidity;BME280_pressure;Samples;Min_cycle;Max_cycle;Signal;HPM_P1;HPM_P2
2022/12/21 00:01:22;;;;;;;41.53;15.70;;;;;;;-1.42;57.07;99745.69;4851540;29;20094;-92
2022/12/21 00:03:53;;;;;;;37.55;15.57;;;;;;;-1.59;57.16;99710.63;4848212;29;20611;-92
2022/12/21 00:06:19;;;;;;;39.38;15.60;;;;;;;-1.15;56.86;99775.69;4868860;29;20045;-92
2022/12/21 00:08:48;;;;;;;38.40;15.13;;;;;;;-1.33;56.96;99778.38;4852386;29;20101;-92
2022/12/21 00:11:14;;;;;;;37.35;14.40;;;;;;;-1.51;57.44;99776.53;4868024;29;20293;-91
2022/12/21 00:13:41;;;;;;;41.00;15.43;;;;;;;-1.52;57.01;99754.25;4880081;29;20073;-91
2022/12/21 00:16:14;;;;;;;37.72;14.23;;;;;;;-1.45;56.95;99752.31;4899934;29;20516;-91
2022/12/21 00:18:41;;;;;;;38.15;14.25;;;;;;;-1.77;57.66;99732.84;4857817;29;20045;-92
2022/12/21 00:21:18;;;;;;;40.53;14.93;;;;;;;-1.63;57.62;99738.09;4859075;29;20045;-91
2022/12/21 00:23:46;;;;;;;36.63;14.48;;;;;;;-1.43;57.21;99768.97;4867315;29;20067;-90
2022/12/21 00:26:14;;;;;;;41.55;16.50;;;;;;;-1.21;57.40;99804.22;4889728;29;20108;-93
2022/12/21 00:28:41;;;;;;;34.65;14.88;;;;;;;-1.39;57.03;99776.59;4871343;29;20096;-92
2022/12/21 00:31:10;;;;;;;42.20;15.93;;;;;;;-1.56;56.84;99744.19;4868026;29;20049;-93
2022/12/21 00:33:38;;;;;;;36.78;15.02;;;;;;;-1.53;57.24;99775.91;4869205;29;20063;-94
2022/12/21 00:36:05;;;;;;;39.70;15.32;;;;;;;-1.46;57.58;99760.56;4854539;29;20044;-92
2022/12/21 00:38:33;;;;;;;39.72;15.10;;;;;;;-1.39;57.26;99761.34;4886485;29;20037;-91
2022/12/21 00:41:04;;;;;;;41.67;15.10;;;;;;;-1.13;57.05;99792.38;4865882;29;20048;-93
2022/12/21 00:43:32;;;;;;;37.58;15.02;;;;;;;-1.65;57.21;99698.13;4857160;29;20073;-92
2022/12/21 00:45:58;;;;;;;36.58;15.07;;;;;;;-1.17;56.91;99771.59;4887344;29;20488;-92
2022/12/21 00:48:26;;;;;;;34.45;15.43;;;;;;;-1.53;56.54;99717.75;4855867;29;20084;-90
2022/12/21 00:50:52;;;;;;;35.13;14.15;;;;;;;-1.29;56.61;99780.41;4863469;29;20059;-93
2022/12/21 00:53:20;;;;;;;31.63;12.88;;;;;;;-1.19;56.80;99801.34;4870125;29;20113;-91
2022/12/21 00:55:56;;;;;;;36.03;13.70;;;;;;;-1.37;56.98;99775.31;4854836;29;20084;-93
2022/12/21 00:58:24;;;;;;;31.52;13.32;;;;;;;-1.51;56.76;99745.16;4863144;29;20032;-91
2022/12/21 01:00:58;;;;;;;37.40;13.32;;;;;;;-1.16;56.81;99786.63;4871895;29;20063;-92
2022/12/21 01:03:27;;;;;;;42.70;14.00;;;;;;;-1.30;56.77;99776.06;4871722;29;20594;-91
2022/12/21 01:05:54;;;;;;;39.00;13.25;;;;;;;-1.27;56.54;99788.22;4867106;29;20494;-93
2022/12/21 01:08:23;;;;;;;33.17;14.43;;;;;;;-1.77;56.68;99700.69;4898618;29;20045;-91
2022/12/21 01:10:55;;;;;;;37.33;14.32;;;;;;;-1.31;56.73;99773.63;4866765;29;20041;-92
2022/12/21 01:13:22;;;;;;;37.25;13.63;;;;;;;-1.09;56.60;99798.94;4873851;29;20044;-91
2022/12/21 01:15:48;;;;;;;40.67;14.60;;;;;;;-1.24;56.63;99769.00;4870244;29;20045;-93
2022/12/21 01:18:15;;;;;;;44.42;14.82;;;;;;;-1.05;56.79;99796.63;4870361;29;20045;-92
2022/12/21 01:20:43;;;;;;;45.05;16.48;;;;;;;-1.01;56.66;99797.81;4873284;29;20064;-93
2022/12/21 01:23:09;;;;;;;49.63;16.08;;;;;;;-1.41;56.92;99744.66;4873658;29;20071;-92
2022/12/21 01:25:36;;;;;;;55.20;16.45;;;;;;;-1.20;56.73;99773.69;4873105;29;20067;-91
2022/12/21 01:28:02;;;;;;;46.88;15.82;;;;;;;-1.16;56.44;99776.72;4904445;29;20044;-92
2022/12/21 01:30:29;;;;;;;35.40;14.02;;;;;;;-0.98;56.29;99795.50;4903883;29;20117;-92
2022/12/21 01:32:55;;;;;;;42.30;15.73;;;;;;;-1.06;56.23;99782.41;4871950;29;20113;-91
2022/12/21 01:35:21;;;;;;;35.22;13.60;;;;;;;-1.09;56.54;99792.75;4849409;29;20053;-93
2022/12/21 01:37:47;;;;;;;32.13;13.13;;;;;;;-1.62;56.52;99715.59;4820537;29;20116;-92
2022/12/21 01:40:14;;;;;;;32.42;13.32;;;;;;;-0.95;56.30;99811.16;4834909;29;20049;-92
2022/12/21 01:42:40;;;;;;;32.47;13.77;;;;;;;-1.10;56.48;99773.16;4820075;29;20435;-92
2022/12/21 01:45:23;;;;;;;31.80;13.05;;;;;;;-1.00;56.54;99807.50;4835943;29;20050;-92
2022/12/21 01:47:57;;;;;;;32.22;13.88;;;;;;;-1.09;56.40;99782.84;4850081;29;20041;-92
2022/12/21 01:50:41;;;;;;;35.47;14.45;;;;;;;-0.87;56.60;99810.00;4821339;29;20044;-93
2022/12/21 01:53:31;;;;;;;34.00;14.88;;;;;;;-1.02;56.68;99797.00;4820509;29;20053;-92
2022/12/21 01:56:04;;;;;;;35.90;14.05;;;;;;;-1.27;56.36;99754.16;4836194;29;20090;-92
2022/12/21 01:58:31;;;;;;;37.00;15.05;;;;;;;-1.13;56.89;99767.41;4836524;29;20056;-92
2022/12/21 02:00:59;;;;;;;39.35;14.32;;;;;;;-1.05;56.08;99783.22;4836836;29;20636;-91
2022/12/21 02:03:32;;;;;;;38.30;14.65;;;;;;;-1.04;56.50;99779.47;4835298;29;20046;-93
2022/12/21 02:06:08;;;;;;;38.45;15.75;;;;;;;-0.84;56.26;99817.63;4835792;29;20049;-92
2022/12/21 02:08:34;;;;;;;37.17;15.38;;;;;;;-1.16;56.35;99765.19;4848085;29;20037;-92
2022/12/21 02:11:02;;;;;;;40.17;15.43;;;;;;;-1.21;55.90;99774.72;4820462;29;20050;-92
2022/12/21 02:13:29;;;;;;;39.13;15.32;;;;;;;-0.97;56.36;99804.38;4849113;29;20055;-92
2022/12/21 02:16:18;;;;;;;39.17;15.75;;;;;;;-0.89;56.08;99814.81;4871935;29;20051;-91
2022/12/21 02:19:00;;;;;;;39.78;14.15;;;;;;;-0.89;56.22;99812.13;4871073;29;20049;-92
2022/12/21 02:21:28;;;;;;;33.03;13.45;;;;;;;-1.58;56.14;99719.47;4872118;29;20049;-91
2022/12/21 02:24:19;;;;;;;31.73;13.95;;;;;;;-0.96;56.54;99816.72;4868442;29;20127;-91
2022/12/21 02:27:06;;;;;;;32.90;13.82;;;;;;;-0.99;56.37;99812.66;4869589;29;20587;-92
2022/12/21 02:29:44;;;;;;;34.17;13.85;;;;;;;-1.01;56.70;99811.22;4854782;29;20048;-91
2022/12/21 02:32:37;;;;;;;29.83;12.52;;;;;;;-1.22;56.26;99766.91;4859638;29;20488;-90
2022/12/21 02:35:16;;;;;;;34.35;13.40;;;;;;;-1.12;56.59;99785.97;4819170;29;20057;-92
2022/12/21 02:38:10;;;;;;;33.15;14.00;;;;;;;-1.21;56.65;99777.41;4827085;29;20045;-92
2022/12/21 02:41:15;;;;;;;30.77;13.05;;;;;;;-1.14;56.87;99774.66;4846978;29;20485;-92
2022/12/21 02:44:13;;;;;;;32.63;12.98;;;;;;;-1.30;56.91;99745.75;4849388;29;20557;-92
2022/12/21 02:47:02;;;;;;;39.28;13.57;;;;;;;-1.36;56.90;99770.78;4839386;29;20074;-91
2022/12/21 02:49:37;;;;;;;33.55;13.40;;;;;;;-1.48;57.06;99730.50;4832646;29;20050;-91
2022/12/21 02:52:44;;;;;;;32.47;13.15;;;;;;;-0.93;56.85;99794.00;4819112;29;20145;-92
2022/12/21 02:55:13;;;;;;;35.88;14.13;;;;;;;-0.87;56.95;99791.22;4830954;29;20117;-92
2022/12/21 02:57:42;;;;;;;32.53;14.00;;;;;;;-1.29;56.59;99742.00;4830374;29;20052;-92
2022/12/21 03:00:18;;;;;;;32.55;12.80;;;;;;;-1.23;56.94;99760.72;4815910;29;20599;-92
2022/12/21 03:06:25;;;;;;;28.70;12.07;;;;;;;-0.98;57.41;99786.63;4830501;29;20070;-92
2022/12/21 03:09:22;;;;;;;34.75;13.73;;;;;;;-0.95;57.21;99780.81;4831553;29;20455;-92
2022/12/21 03:11:54;;;;;;;45.00;12.68;;;;;;;-1.36;57.09;99701.06;4823082;29;20060;-91
2022/12/21 03:14:40;;;;;;;33.60;12.85;;;;;;;-1.34;57.52;99710.53;4852986;29;20061;-91
2022/12/21 03:17:15;;;;;;;29.08;12.73;;;;;;;-0.92;57.48;99771.50;4868290;29;20049;-92
2022/12/21 03:20:01;;;;;;;34.80;13.82;;;;;;;-1.14;58.36;99774.66;4854814;29;20055;-91
2022/12/21 03:22:47;;;;;;;33.83;14.25;;;;;;;-1.57;59.02;99750.59;4850354;29;20073;-91
2022/12/21 03:25:26;;;;;;;40.35;14.13;;;;;;;-1.29;59.26;99772.38;4866593;29;20057;-91
2022/12/21 03:27:57;;;;;;;35.67;14.32;;;;;;;-2.03;59.68;99693.75;4850709;29;20063;-91
2022/12/21 03:30:25;;;;;;;41.30;14.75;;;;;;;-1.82;60.38;99730.03;4851223;29;20109;-91
2022/12/21 03:32:58;;;;;;;34.33;15.25;;;;;;;-1.75;60.10;99740.69;4863016;29;20045;-92
2022/12/21 03:35:30;;;;;;;42.53;16.25;;;;;;;-1.46;60.21;99766.78;4851083;29;20073;-92
2022/12/21 03:38:01;;;;;;;40.00;16.30;;;;;;;-1.77;60.76;99734.72;4858354;29;20052;-91
2022/12/21 03:40:33;;;;;;;36.88;15.55;;;;;;;-1.42;60.65;99777.88;4860489;29;20058;-92
2022/12/21 03:43:05;;;;;;;46.08;16.60;;;;;;;-1.56;60.25;99718.19;4865789;29;20052;-91
2022/12/21 03:45:43;;;;;;;46.47;16.27;;;;;;;-1.26;59.99;99755.81;4866253;29;20633;-92
2022/12/21 03:48:54;;;;;;;38.83;15.30;;;;;;;-1.50;60.04;99705.75;4866307;29;20045;-92
2022/12/21 03:51:29;;;;;;;35.35;15.10;;;;;;;-1.11;59.92;99758.09;4850179;29;20045;-93
2022/12/21 03:54:07;;;;;;;37.28;15.02;;;;;;;-1.27;59.50;99711.25;4837095;29;20161;-92
2022/12/21 03:56:37;;;;;;;38.38;16.35;;;;;;;-1.05;59.70;99767.13;4851135;29;20045;-92
2022/12/21 03:59:06;;;;;;;35.47;14.45;;;;;;;-1.19;59.85;99728.91;4844046;29;20060;-92
2022/12/21 04:01:47;;;;;;;42.83;16.25;;;;;;;-0.77;59.15;99779.97;4895204;29;20037;-91
2022/12/21 04:04:27;;;;;;;44.03;16.02;;;;;;;-1.26;59.65;99745.09;4897060;29;20124;-93
2022/12/21 04:07:01;;;;;;;45.15;16.90;;;;;;;-1.30;60.43;99735.84;4881999;29;20035;-92
2022/12/21 04:09:27;;;;;;;42.50;16.30;;;;;;;-1.38;60.26;99705.84;4864653;29;20045;-92
2022/12/21 04:14:43;;;;;;;41.08;16.45;;;;;;;-1.46;60.03;99675.63;4900846;29;20044;-92
2022/12/21 04:17:12;;;;;;;39.75;17.30;;;;;;;-1.46;60.12;99656.84;4881637;29;20040;-93
2022/12/21 04:19:59;;;;;;;39.83;16.15;;;;;;;-0.94;59.80;99742.19;4916342;29;20079;-94
2022/12/21 04:28:07;;;;;;;43.88;17.85;;;;;;;-1.55;59.93;99662.75;4903834;29;20049;-91
2022/12/21 04:30:44;;;;;;;36.30;16.55;;;;;;;-1.17;60.39;99699.97;4863471;29;20045;-90
2022/12/21 04:33:14;;;;;;;42.42;17.25;;;;;;;-1.11;60.18;99688.34;4864646;29;20050;-90
2022/12/21 04:38:58;;;;;;;46.15;17.02;;;;;;;-0.56;59.83;99741.06;4890786;29;20048;-89
2022/12/21 04:41:27;;;;;;;36.00;15.82;;;;;;;-0.73;60.32;99741.72;4874548;29;20105;-90
2022/12/21 04:44:16;;;;;;;38.35;14.90;;;;;;;-0.91;60.64;99706.03;4969731;23;20075;-90
2022/12/21 04:46:46;;;;;;;36.78;15.70;;;;;;;-1.16;60.31;99650.66;4858609;29;20104;-89
2022/12/21 04:49:13;;;;;;;35.22;15.70;;;;;;;-1.13;60.72;99686.94;4844379;29;20037;-90
2022/12/21 04:51:39;;;;;;;37.90;16.77;;;;;;;-0.67;60.60;99757.94;4874364;29;20044;-91
2022/12/21 04:54:07;;;;;;;34.50;16.13;;;;;;;-0.80;60.85;99753.56;4873226;29;20041;-91
2022/12/21 04:56:33;;;;;;;41.78;16.15;;;;;;;-1.50;61.42;99678.94;4853812;29;20511;-91
2022/12/21 04:59:04;;;;;;;42.05;16.90;;;;;;;-0.99;61.42;99739.38;4864955;29;20041;-92
2022/12/21 05:01:30;;;;;;;36.00;15.05;;;;;;;-0.96;61.16;99729.03;4853054;29;20041;-92
2022/12/21 05:04:02;;;;;;;44.35;16.88;;;;;;;-0.58;61.02;99781.56;4847984;29;20499;-93
2022/12/21 05:06:28;;;;;;;38.95;17.08;;;;;;;-0.97;60.76;99724.69;4846900;29;20065;-92
2022/12/21 05:08:56;;;;;;;36.63;16.67;;;;;;;-0.58;60.21;99772.69;4835309;29;20057;-92
2022/12/21 05:11:24;;;;;;;40.88;16.90;;;;;;;-0.43;60.19;99786.50;4863995;29;20060;-92
2022/12/21 05:13:51;;;;;;;37.03;15.90;;;;;;;-0.35;60.29;99780.81;4848020;29;20045;-94
2022/12/21 05:16:19;;;;;;;;;;;;;;;-0.29;59.94;99793.31;4847107;29;20065;-94
2022/12/21 05:18:48;;;;;;;34.05;15.40;;;;;;;-0.87;59.67;99701.84;4845310;29;19955;-92
2022/12/21 05:21:17;;;;;;;36.15;15.23;;;;;;;-0.46;59.99;99752.06;4861953;29;20128;-92
2022/12/21 05:24:04;;;;;;;38.65;15.98;;;;;;;-0.57;59.65;99736.72;4876335;29;20045;-92
2022/12/21 05:26:30;;;;;;;39.83;16.08;;;;;;;-0.17;60.17;99804.06;4846617;29;20049;-92
2022/12/21 05:29:15;;;;;;;43.92;17.67;;;;;;;-0.53;59.86;99724.47;4844939;29;20073;-92
2022/12/21 05:31:41;;;;;;;40.67;16.65;;;;;;;-0.42;59.50;99739.81;4846315;29;20073;-92
2022/12/21 05:34:09;;;;;;;39.65;17.13;;;;;;;-0.82;59.73;99686.69;4847074;29;20057;-91
2022/12/21 05:40:20;;;;;;;43.05;15.98;;;;;;;-0.59;59.54;99733.47;5509134;23;20059;-91
2022/12/21 05:42:47;;;;;;;54.70;17.48;;;;;;;-0.37;59.16;99760.59;4897078;29;20100;-89
2022/12/21 05:45:17;;;;;;;45.63;16.08;;;;;;;-0.56;59.52;99723.06;4902539;29;20448;-92
2022/12/21 05:47:46;;;;;;;48.75;18.77;;;;;;;-0.65;58.84;99708.34;5007131;23;20036;-92
2022/12/21 05:50:12;;;;;;;47.08;18.70;;;;;;;-0.47;58.90;99731.59;4891318;29;20036;-91
2022/12/21 05:56:19;;;;;;;45.67;17.65;;;;;;;-0.24;59.40;99784.56;4993647;23;20040;-91
2022/12/21 05:58:46;;;;;;;38.67;16.73;;;;;;;-0.53;58.80;99743.25;4876071;29;20063;-92
2022/12/21 06:01:13;;;;;;;41.27;17.43;;;;;;;-0.41;58.69;99776.34;4876658;29;20035;-91
2022/12/21 06:11:45;;;;;;;41.80;16.35;;;;;;;-0.92;58.45;99707.09;4934330;29;20055;-92
2022/12/21 06:14:13;;;;;;;37.63;16.50;;;;;;;-0.64;59.00;99731.44;4886594;29;20048;-94
2022/12/21 06:16:43;;;;;;;34.13;14.90;;;;;;;-0.22;58.92;99795.91;4900102;29;20084;-92
2022/12/21 06:19:13;;;;;;;42.85;16.40;;;;;;;-0.22;59.04;99805.84;4915943;29;20059;-92
2022/12/21 06:21:39;;;;;;;37.42;15.98;;;;;;;-0.59;59.15;99736.97;4868501;29;20052;-92
2022/12/21 06:24:09;;;;;;;34.80;16.40;;;;;;;-0.55;59.12;99785.66;4898720;29;20040;-93
2022/12/21 06:26:35;;;;;;;37.33;16.42;;;;;;;-1.27;60.27;99715.81;4884264;29;20076;-92
2022/12/21 06:29:03;;;;;;;33.28;16.17;;;;;;;-1.09;60.13;99710.41;4866964;29;20056;-92
2022/12/21 06:31:32;;;;;;;35.83;15.35;;;;;;;-0.72;59.45;99758.63;4915167;29;20052;-92
2022/12/21 06:33:58;;;;;;;34.40;16.70;;;;;;;-0.68;59.44;99759.00;4903260;29;20024;-93
2022/12/21 06:36:24;;;;;;;35.70;15.85;;;;;;;-0.81;58.91;99722.41;4923711;29;20028;-93
2022/12/21 06:48:09;;;;;;;39.45;17.45;;;;;;;-0.25;58.69;99796.34;4849267;29;20102;-90
2022/12/21 06:50:35;;;;;;;47.97;18.85;;;;;;;-0.15;58.70;99815.41;4837133;29;20037;-91
2022/12/21 06:53:01;;;;;;;49.15;20.48;;;;;;;-0.14;58.36;99802.81;4854088;29;20025;-89
2022/12/21 06:55:28;;;;;;;51.67;19.17;;;;;;;-0.16;58.43;99786.09;4822386;29;20161;-89
2022/12/21 06:57:54;;;;;;;47.42;19.92;;;;;;;0.05;58.28;99809.72;4833377;29;20564;-90
2022/12/21 07:00:20;;;;;;;47.40;17.67;;;;;;;-0.28;58.67;99762.72;4817812;29;20062;-90
2022/12/21 07:02:48;;;;;;;39.58;17.00;;;;;;;-0.12;58.55;99777.34;4850113;29;20079;-91
2022/12/21 07:05:15;;;;;;;37.78;16.45;;;;;;;-0.19;58.48;99757.00;4817690;29;20046;-90
2022/12/21 07:11:06;;;;;;;45.95;18.60;;;;;;;-0.54;58.45;99687.94;4814691;29;20061;-92
2022/12/21 07:13:36;;;;;;;67.72;25.13;;;;;;;-0.06;58.57;99772.91;4801281;29;20051;-91
2022/12/21 07:16:03;;;;;;;86.32;29.63;;;;;;;0.07;58.53;99791.50;4799588;29;20540;-91
2022/12/21 07:18:29;;;;;;;68.87;26.23;;;;;;;0.16;58.72;99803.53;4801992;29;20073;-94
2022/12/21 07:21:02;;;;;;;53.35;19.35;;;;;;;-0.12;58.49;99742.41;4800447;29;20066;-91
2022/12/21 07:23:30;;;;;;;38.00;17.10;;;;;;;0.32;58.30;99811.97;4799514;29;20087;-91
2022/12/21 07:25:57;;;;;;;38.58;17.25;;;;;;;0.06;57.91;99770.22;4800876;29;20083;-91
2022/12/21 07:28:25;;;;;;;40.35;16.63;;;;;;;0.08;58.17;99785.06;4800058;29;20050;-92
2022/12/21 07:31:15;;;;;;;37.70;16.02;;;;;;;0.36;58.19;99815.81;4802528;29;20050;-91
2022/12/21 07:41:18;;;;;;;35.33;14.90;;;;;;;0.00;59.05;99782.75;4939311;23;20066;-92
2022/12/21 07:43:47;;;;;;;40.42;15.82;;;;;;;-0.32;59.47;99749.97;4896806;29;20048;-92
2022/12/21 07:46:16;;;;;;;37.30;15.07;;;;;;;-0.17;58.99;99738.78;4903807;29;20036;-94
2022/12/21 07:48:46;;;;;;;38.42;15.55;;;;;;;-0.22;58.87;99728.75;4877507;29;20055;-95
2022/12/21 07:51:13;;;;;;;40.15;16.33;;;;;;;0.26;58.73;99808.34;4859834;29;20091;-94
2022/12/21 07:53:40;;;;;;;36.42;16.35;;;;;;;-0.04;59.35;99760.88;4883953;29;20036;-92
2022/12/21 07:56:12;;;;;;;42.28;17.05;;;;;;;-0.16;59.79;99743.13;4883898;29;20506;-91
2022/12/21 07:58:38;;;;;;;41.33;17.52;;;;;;;-0.17;60.58;99741.47;4882807;29;20039;-91
2022/12/21 08:01:13;;;;;;;40.57;17.10;;;;;;;-0.14;61.36;99766.00;4881320;29;20080;-91
2022/12/21 08:03:47;;;;;;;39.53;17.13;;;;;;;-0.41;61.67;99728.00;4882671;29;20296;-93
2022/12/21 08:06:15;;;;;;;42.83;18.13;;;;;;;-0.14;62.17;99789.38;4869533;29;20044;-91
2022/12/21 08:08:41;;;;;;;48.25;18.65;;;;;;;-0.02;63.07;99825.97;4884110;29;20308;-90
2022/12/21 08:11:18;;;;;;;43.35;17.05;;;;;;;-0.44;62.61;99724.97;4914871;29;20056;-92
2022/12/21 08:13:46;;;;;;;46.58;17.83;;;;;;;-0.16;62.71;99805.72;4897150;29;20040;-92
2022/12/21 08:16:15;;;;;;;42.47;17.85;;;;;;;-0.34;63.00;99770.88;4898520;29;20577;-92
2022/12/21 08:27:06;;;;;;;42.03;16.42;;;;;;;-0.24;63.62;99773.81;4916491;23;20123;-92
2022/12/21 08:29:34;;;;;;;38.58;16.83;;;;;;;-0.20;63.66;99766.09;4885497;29;20051;-92
2022/12/21 08:32:01;;;;;;;45.92;17.83;;;;;;;-0.40;62.92;99720.75;4882691;29;20075;-90
2022/12/21 08:34:27;;;;;;;38.28;15.80;;;;;;;-0.10;62.56;99767.19;4897970;29;20103;-91
2022/12/21 08:36:53;;;;;;;40.72;14.55;;;;;;;-0.21;62.58;99759.91;4880805;29;20103;-91
2022/12/21 08:39:19;;;;;;;43.65;15.10;;;;;;;-0.33;62.79;99748.31;4918872;29;20040;-93
2022/12/21 08:41:46;;;;;;;33.45;13.48;;;;;;;-0.65;63.10;99718.25;4905310;29;20107;-93
2022/12/21 08:44:16;;;;;;;36.85;14.18;;;;;;;-0.25;63.37;99769.50;4945952;23;20059;-93
2022/12/21 08:50:32;;;;;;;32.25;14.40;;;;;;;-0.46;63.11;99754.75;4845062;29;20069;-92
2022/12/21 08:52:58;;;;;;;34.92;12.80;;;;;;;-0.93;63.38;99716.19;4839156;29;20045;-90
2022/12/21 08:55:28;;;;;;;23.90;12.15;;;;;;;-0.74;63.92;99788.38;4834570;29;20065;-90
2022/12/21 08:57:55;;;;;;;26.08;10.93;;;;;;;-0.91;64.15;99782.00;4866263;29;20041;-90
2022/12/21 09:00:22;;;;;;;21.92;9.90;;;;;;;-0.87;63.95;99782.38;4813736;29;20054;-91
2022/12/21 09:03:15;;;;;;;18.25;7.95;;;;;;;-1.45;64.19;99759.56;4804921;29;20050;-92
2022/12/21 09:05:41;;;;;;;18.17;7.60;;;;;;;-1.04;64.85;99819.72;4815886;29;20507;-90
2022/12/21 09:08:07;;;;;;;19.27;7.40;;;;;;;-1.45;64.40;99740.78;4801947;29;20070;-91
2022/12/21 09:10:34;;;;;;;15.77;7.53;;;;;;;-1.63;64.35;99711.28;4829220;29;20045;-91
2022/12/21 09:13:01;;;;;;;14.48;6.88;;;;;;;-1.00;64.32;99773.44;4782316;29;20055;-91
2022/12/21 09:21:30;;;;;;;15.05;6.80;;;;;;;-0.96;64.20;99809.53;5036964;23;20081;-91
2022/12/21 09:23:57;;;;;;;;;;;;;;;-0.99;64.70;99799.25;4875287;29;20136;-91
2022/12/21 09:26:29;;;;;;;17.60;7.90;;;;;;;-1.12;65.35;99806.63;4862955;29;19927;-95
2022/12/21 09:33:15;;;;;;;16.52;7.72;;;;;;;-1.22;65.51;99797.25;4906975;23;20428;-92
2022/12/21 09:39:11;;;;;;;15.32;8.38;;;;;;;-1.21;65.96;99779.28;4840848;29;20058;-92
2022/12/21 09:46:08;;;;;;;17.25;9.18;;;;;;;-1.41;65.87;99728.56;5222428;23;20106;-92
2022/12/21 09:48:40;;;;;;;17.90;8.07;;;;;;;-1.23;65.18;99731.19;4899690;29;20047;-92
2022/12/21 09:51:14;;;;;;;14.40;7.57;;;;;;;-0.82;64.57;99772.59;4903893;29;20075;-94
2022/12/21 09:54:09;;;;;;;15.32;6.70;;;;;;;-1.07;65.53;99785.28;4895742;29;20126;-93
2022/12/21 09:56:49;;;;;;;15.88;7.75;;;;;;;-1.44;65.76;99711.03;4857066;29;20076;-93
2022/12/21 09:59:20;;;;;;;21.35;8.57;;;;;;;-0.92;65.41;99760.78;4858169;29;20053;-93
2022/12/21 10:02:27;;;;;;;16.67;8.30;;;;;;;-0.87;65.81;99769.75;4859889;29;20053;-93
2022/12/21 10:04:59;;;;;;;14.57;8.07;;;;;;;-0.94;65.64;99774.41;4861857;29;20049;-92
2022/12/21 10:07:57;;;;;;;16.35;8.35;;;;;;;-0.75;65.25;99773.31;4845571;29;20048;-93
2022/12/21 10:10:34;;;;;;;14.40;6.60;;;;;;;-1.28;65.02;99690.03;4861092;29;20623;-92
2022/12/21 10:13:31;;;;;;;20.70;10.20;;;;;;;-0.74;64.87;99755.34;4845151;29;20053;-93
2022/12/21 10:16:15;;;;;;;16.50;7.90;;;;;;;-0.83;64.89;99748.66;4861616;29;20049;-92
2022/12/21 10:19:03;;;;;;;15.65;7.90;;;;;;;-0.84;65.27;99753.19;4861976;29;20051;-92
2022/12/21 10:21:50;;;;;;;16.42;9.02;;;;;;;-0.62;64.87;99740.09;4848094;29;20081;-93
2022/12/21 10:24:28;;;;;;;17.02;9.13;;;;;;;-0.45;64.20;99734.06;4874415;29;20060;-92
2022/12/21 10:27:15;;;;;;;15.13;8.07;;;;;;;-1.02;64.16;99664.72;4846753;29;20048;-92
2022/12/21 10:29:51;;;;;;;19.95;9.48;;;;;;;-1.15;64.71;99627.34;4826159;29;20107;-93
2022/12/21 10:32:19;;;;;;;18.30;9.00;;;;;;;-0.61;64.25;99722.13;4820246;29;20103;-92
2022/12/21 10:34:50;;;;;;;23.35;9.77;;;;;;;-0.59;64.33;99683.25;4812481;29;20441;-92
2022/12/21 10:37:20;;;;;;;18.05;9.30;;;;;;;-0.64;63.80;99661.63;4827227;29;20083;-93
2022/12/21 10:39:56;;;;;;;19.58;9.15;;;;;;;-1.03;63.91;99606.72;4811812;29;20056;-91
2022/12/21 10:42:40;;;;;;;23.93;10.97;;;;;;;-0.12;63.62;99703.97;4840982;29;20050;-94
2022/12/21 10:45:17;;;;;;;25.03;11.93;;;;;;;-0.29;63.19;99671.63;4857803;29;20050;-92
2022/12/21 10:47:46;;;;;;;27.40;11.43;;;;;;;-0.36;63.08;99668.22;4824835;29;20481;-91
2022/12/21 10:50:21;;;;;;;34.47;15.85;;;;;;;-0.49;63.43;99643.22;4824169;29;20102;-94
2022/12/21 10:52:50;;;;;;;15.30;8.13;;;;;;;-0.67;63.81;99688.94;4810133;29;20049;-93
2022/12/21 10:55:26;;;;;;;17.95;10.05;;;;;;;-0.43;64.29;99707.78;4839223;29;20046;-91
2022/12/21 10:58:04;;;;;;;19.02;9.57;;;;;;;-0.64;64.25;99647.41;4844193;29;20046;-93
2022/12/21 11:07:24;;;;;;;18.38;8.02;;;;;;;-0.92;64.32;99595.22;4877916;29;20139;-93
2022/12/21 11:09:59;;;;;;;14.68;7.97;;;;;;;-0.67;64.61;99635.25;4864847;29;20049;-93
2022/12/21 11:12:27;;;;;;;12.95;7.78;;;;;;;-0.69;64.52;99636.56;4873774;29;20116;-91
2022/12/21 11:14:54;;;;;;;17.88;9.23;;;;;;;-1.12;64.84;99592.84;4876071;29;20083;-92
2022/12/21 11:27:37;;;;;;;25.70;11.20;;;;;;;-1.24;66.71;99608.06;5265311;23;20075;-92
2022/12/21 13:14:57;;;;;;;20.10;9.45;;;;;;;-0.29;66.01;99647.44;4964848;23;19927;-90
2022/12/21 15:20:00;;;;;;;28.27;13.65;;;;;;;-1.28;71.77;99405.75;4835645;29;20045;-92
2022/12/21 15:22:46;;;;;;;37.05;14.23;;;;;;;-0.61;71.52;99516.19;4835124;29;20060;-85
2022/12/21 15:25:18;;;;;;;41.28;18.83;;;;;;;-0.72;71.67;99496.38;4854587;29;20042;-87
2022/12/21 15:28:09;;;;;;;43.08;17.92;;;;;;;-0.62;71.68;99500.34;4857903;29;20057;-90
2022/12/21 15:30:40;;;;;;;39.72;17.95;;;;;;;-1.05;72.32;99447.84;4840041;29;20041;-91
2022/12/21 15:33:33;;;;;;;52.72;20.30;;;;;;;-0.55;72.27;99509.91;4835663;29;20049;-91
2022/12/21 15:36:03;;;;;;;53.42;21.92;;;;;;;-0.60;72.49;99508.97;4900998;24;20057;-90
2022/12/21 15:38:49;;;;;;;41.38;16.13;;;;;;;-1.12;73.06;99455.22;4818393;29;20050;-90
2022/12/21 15:41:30;;;;;;;50.08;20.55;;;;;;;-0.78;73.58;99523.34;4805497;29;20053;-90
2022/12/21 15:44:04;;;;;;;48.85;19.48;;;;;;;-0.66;73.47;99507.22;4848645;29;20453;-91
2022/12/21 15:46:47;;;;;;;50.17;19.77;;;;;;;-0.63;73.62;99518.31;4855380;29;20034;-92
2022/12/21 15:49:33;;;;;;;50.55;21.02;;;;;;;-0.93;73.12;99429.88;4821665;29;20068;-92
2022/12/21 15:52:01;;;;;;;;;;;;;;;-0.48;72.67;99496.34;4841840;29;20840;-93
2022/12/21 15:54:42;;;;;;;39.92;16.95;;;;;;;-0.76;72.86;99436.16;4845700;29;19924;-92
2022/12/21 15:57:14;;;;;;;45.80;20.02;;;;;;;-0.21;72.24;99493.94;4812983;29;20050;-93
2022/12/21 16:00:11;;;;;;;33.15;15.70;;;;;;;-0.33;71.84;99485.94;4798328;29;20054;-94
2022/12/21 16:13:57;;;;;;;21.45;10.77;;;;;;;-0.97;71.93;99372.38;4916932;29;20052;-93
2022/12/21 16:16:46;;;;;;;18.67;10.43;;;;;;;-1.06;72.38;99371.09;4873564;29;20041;-92
2022/12/21 16:19:49;;;;;;;22.80;10.35;;;;;;;-0.82;72.63;99412.94;5001117;23;20136;-93
2022/12/21 16:22:41;;;;;;;24.92;12.02;;;;;;;-0.55;72.60;99428.53;4906645;29;20090;-91
2022/12/21 16:25:34;;;;;;;20.38;9.98;;;;;;;-0.84;71.91;99361.38;4958083;23;20057;-93
2022/12/21 16:28:02;;;;;;;20.65;10.77;;;;;;;-0.68;72.03;99383.16;4868794;29;20037;-94
2022/12/21 16:30:48;;;;;;;25.27;11.38;;;;;;;-1.01;72.61;99372.03;4851020;29;20040;-93
2022/12/21 16:33:18;;;;;;;23.30;11.70;;;;;;;-0.55;72.63;99404.38;4825399;29;20055;-93
2022/12/21 16:36:24;;;;;;;20.42;11.52;;;;;;;-0.59;72.51;99398.66;4764240;29;20078;-94
2022/12/21 16:39:18;;;;;;;26.63;13.13;;;;;;;-0.66;72.66;99367.63;4800899;29;20058;-93
2022/12/21 16:41:51;;;;;;;27.00;13.75;;;;;;;-0.50;72.07;99362.34;4784081;29;20142;-93
2022/12/21 16:44:52;;;;;;;31.20;14.55;;;;;;;-0.76;72.15;99320.75;4781360;29;20084;-91
2022/12/21 16:47:43;;;;;;;38.92;17.48;;;;;;;-0.69;72.37;99328.66;4779982;29;20118;-93
2022/12/21 16:50:43;;;;;;;36.53;15.65;;;;;;;-0.11;72.78;99412.72;4808110;29;20056;-94
2022/12/21 16:53:41;;;;;;;31.10;14.13;;;;;;;-0.17;72.97;99413.69;4803729;29;20051;-93
2022/12/21 16:57:40;;;;;;;28.88;14.35;;;;;;;-0.01;72.88;99412.91;4814656;29;20050;-94
2022/12/21 17:00:52;;;;;;;35.15;15.20;;;;;;;-0.61;72.89;99298.75;4805327;29;20059;-92
2022/12/21 17:03:36;;;;;;;;;;;;;;;0.05;72.56;99395.81;4753760;30;20056;-92
2022/12/21 17:06:11;;;;;;;36.08;14.85;;;;;;;-0.12;71.87;99358.19;4764811;30;19922;-93
2022/12/21 17:08:49;;;;;;;40.88;16.50;;;;;;;-0.44;72.00;99279.16;4780002;30;20056;-93
2022/12/21 17:11:19;;;;;;;40.60;17.67;;;;;;;0.09;72.19;99374.66;4801426;29;20661;-92
2022/12/21 17:13:50;;;;;;;39.58;17.42;;;;;;;-0.21;72.48;99331.94;4819790;29;20046;-93
2022/12/21 17:16:20;;;;;;;37.67;15.95;;;;;;;-0.07;72.77;99352.06;4799741;29;20049;-94
2022/12/21 17:18:50;;;;;;;36.92;18.48;;;;;;;-0.26;72.47;99305.81;4815055;29;20054;-94
2022/12/21 17:21:18;;;;;;;37.17;17.58;;;;;;;0.18;72.15;99363.25;4818879;29;20062;-94
2022/12/21 17:24:01;;;;;;;40.10;18.08;;;;;;;-0.37;71.89;99253.78;4821296;29;20053;-95
2022/12/21 17:26:47;;;;;;;25.42;12.20;;;;;;;-0.04;71.49;99300.53;4806096;29;20031;-93
2022/12/21 17:29:19;;;;;;;23.25;11.93;;;;;;;0.07;71.70;99307.72;4953319;23;20064;-93